createdAt,value
2022-09-06T00:00:35.680Z,1.60
2022-09-06T00:03:05.546Z,1.53
2022-09-06T00:05:34.429Z,1.57
2022-09-06T00:08:04.338Z,1.40
2022-09-06T00:10:33.571Z,1.80
2022-09-06T00:13:06.711Z,1.70
2022-09-06T00:15:36.645Z,1.80
2022-09-06T00:18:06.852Z,1.60
2022-09-06T00:20:36.897Z,1.60
2022-09-06T00:23:07.839Z,1.80
2022-09-06T00:25:36.754Z,1.80
2022-09-06T00:28:07.259Z,1.73
2022-09-06T00:30:35.945Z,1.97
2022-09-06T00:33:04.618Z,1.83
2022-09-06T00:35:33.423Z,1.50
2022-09-06T00:38:03.435Z,2.00
2022-09-06T00:40:35.748Z,1.90
2022-09-06T00:43:04.609Z,1.97
2022-09-06T00:45:35.281Z,1.80
2022-09-06T00:48:07.037Z,2.27
2022-09-06T00:50:36.140Z,2.07
2022-09-06T00:53:05.225Z,1.97
2022-09-06T00:55:34.677Z,1.60
2022-09-06T00:58:03.986Z,1.80
2022-09-06T01:00:34.473Z,1.83
2022-09-06T01:03:03.693Z,1.90
2022-09-06T01:05:40.490Z,1.83
2022-09-06T01:08:18.275Z,1.77
2022-09-06T01:11:10.150Z,1.83
2022-09-06T01:13:50.052Z,1.83
2022-09-06T01:16:30.655Z,1.73
2022-09-06T01:19:20.500Z,2.20
2022-09-06T01:21:53.216Z,1.93
2022-09-06T01:24:52.843Z,1.83
2022-09-06T01:27:43.175Z,1.90
2022-09-06T01:30:14.077Z,1.93
2022-09-06T01:32:52.025Z,1.90
2022-09-06T01:35:29.756Z,1.90
2022-09-06T01:38:00.284Z,1.80
2022-09-06T01:40:29.201Z,1.90
2022-09-06T01:42:59.745Z,1.93
2022-09-06T01:45:36.089Z,2.00
2022-09-06T01:48:13.152Z,1.97
2022-09-06T01:51:05.798Z,2.07
2022-09-06T01:53:55.770Z,1.70
2022-09-06T01:56:37.410Z,2.20
2022-09-06T01:59:22.796Z,1.83
2022-09-06T02:02:04.091Z,2.60
2022-09-06T02:04:41.232Z,2.00
2022-09-06T02:07:15.927Z,2.00
2022-09-06T02:09:47.090Z,1.83
2022-09-06T02:12:18.189Z,2.40
2022-09-06T02:14:54.183Z,2.20
2022-09-06T02:17:27.735Z,2.23
2022-09-06T02:20:00.669Z,2.33
2022-09-06T02:22:33.739Z,2.40
2022-09-06T02:25:04.358Z,2.10
2022-09-06T02:27:34.487Z,1.90
2022-09-06T02:30:05.327Z,2.40
2022-09-06T02:32:40.421Z,2.07
2022-09-06T02:35:14.328Z,1.90
2022-09-06T02:37:44.173Z,2.30
2022-09-06T02:40:13.582Z,2.20
2022-09-06T02:42:42.315Z,2.40
2022-09-06T02:45:13.051Z,2.03
2022-09-06T02:47:42.035Z,2.40
2022-09-06T02:50:10.928Z,2.10
2022-09-06T02:52:39.760Z,2.17
2022-09-06T02:55:09.359Z,2.20
2022-09-06T02:57:38.119Z,2.30
2022-09-06T03:00:07.838Z,2.27
2022-09-06T03:02:37.945Z,2.20
2022-09-06T03:05:07.324Z,2.17
2022-09-06T03:07:35.915Z,2.37
2022-09-06T03:10:05.167Z,2.20
2022-09-06T03:12:33.948Z,2.10
2022-09-06T03:15:02.736Z,2.20
2022-09-06T03:17:31.539Z,2.43
2022-09-06T03:20:01.676Z,2.60
2022-09-06T03:22:30.880Z,2.50
2022-09-06T03:24:59.538Z,2.20
2022-09-06T03:27:28.413Z,2.20
2022-09-06T03:29:57.037Z,2.43
2022-09-06T03:32:25.854Z,2.40
2022-09-06T03:34:54.461Z,2.17
2022-09-06T03:37:24.804Z,2.50
2022-09-06T03:39:53.441Z,3.63
2022-09-06T03:42:21.994Z,4.20
2022-09-06T03:44:50.850Z,2.57
2022-09-06T03:47:19.848Z,2.37
2022-09-06T03:49:48.899Z,2.23
2022-09-06T03:52:17.708Z,2.90
2022-09-06T03:54:48.083Z,3.70
2022-09-06T03:57:17.040Z,3.30
2022-09-06T03:59:45.766Z,2.60
2022-09-06T04:02:14.417Z,2.40
2022-09-06T04:04:43.092Z,2.50
2022-09-06T04:07:11.969Z,2.67
2022-09-06T04:09:40.499Z,2.53
2022-09-06T04:12:10.969Z,2.60
2022-09-06T04:14:39.733Z,2.47
2022-09-06T04:17:08.456Z,3.03
2022-09-06T04:19:37.012Z,2.73
2022-09-06T04:22:05.868Z,2.60
2022-09-06T04:24:34.649Z,2.50
2022-09-06T04:27:03.515Z,2.83
2022-09-06T04:29:33.661Z,2.73
2022-09-06T04:32:02.296Z,3.10
2022-09-06T04:34:30.991Z,3.30
2022-09-06T04:36:59.786Z,2.57
2022-09-06T04:39:28.536Z,2.60
2022-09-06T04:41:57.427Z,2.50
2022-09-06T04:44:26.193Z,2.50
2022-09-06T04:47:09.446Z,2.40
2022-09-06T04:49:38.300Z,2.40
2022-09-06T04:52:07.145Z,2.50
2022-09-06T04:54:35.768Z,2.37
2022-09-06T04:57:04.919Z,2.30
2022-09-06T04:59:33.909Z,2.33
2022-09-06T05:02:04.200Z,2.53
2022-09-06T05:04:33.050Z,2.60
2022-09-06T05:07:03.444Z,2.50
2022-09-06T05:09:32.790Z,2.30
2022-09-06T05:12:01.985Z,2.77
2022-09-06T05:14:31.246Z,2.43
2022-09-06T05:16:59.968Z,2.33
2022-09-06T05:19:30.279Z,2.37
2022-09-06T05:21:59.064Z,2.47
2022-09-06T05:24:27.955Z,2.53
2022-09-06T05:26:56.703Z,2.40
2022-09-06T05:29:28.766Z,2.13
2022-09-06T05:31:59.265Z,2.40
2022-09-06T05:34:29.467Z,2.33
2022-09-06T05:36:58.123Z,1.90
2022-09-06T05:39:26.926Z,2.27
2022-09-06T05:41:55.758Z,2.40
2022-09-06T05:44:24.255Z,2.27
2022-09-06T05:46:53.573Z,2.40
2022-09-06T05:49:22.035Z,2.03
2022-09-06T05:51:53.196Z,2.40
2022-09-06T05:54:21.838Z,2.27
2022-09-06T05:56:50.391Z,2.03
2022-09-06T05:59:18.904Z,3.07
2022-09-06T06:01:51.651Z,2.10
2022-09-06T06:04:20.934Z,2.60
2022-09-06T06:06:50.037Z,2.43
2022-09-06T06:09:19.982Z,2.73
2022-09-06T06:11:48.775Z,2.53
2022-09-06T06:14:17.403Z,2.30
2022-09-06T06:16:46.118Z,2.40
2022-09-06T06:19:15.433Z,2.83
2022-09-06T06:21:44.316Z,2.43
2022-09-06T06:24:13.098Z,2.60
2022-09-06T06:26:43.438Z,2.43
2022-09-06T06:29:12.232Z,2.93
2022-09-06T06:31:40.853Z,2.43
2022-09-06T06:34:10.156Z,2.87
2022-09-06T06:36:39.270Z,3.10
2022-09-06T06:39:09.822Z,2.47
2022-09-06T06:41:38.379Z,2.60
2022-09-06T06:44:28.057Z,2.50
2022-09-06T06:46:57.984Z,3.20
2022-09-06T06:49:26.594Z,2.67
2022-09-06T06:51:55.134Z,2.97
2022-09-06T06:54:23.630Z,2.43
2022-09-06T06:56:52.171Z,2.80
2022-09-06T06:59:20.860Z,2.47
2022-09-06T07:01:50.986Z,2.90
2022-09-06T07:04:19.656Z,2.30
2022-09-06T07:12:30.129Z,2.30
2022-09-06T07:14:58.903Z,2.20
2022-09-06T07:17:29.233Z,2.30
2022-09-06T07:20:13.794Z,2.20
2022-09-06T07:22:43.567Z,2.23
2022-09-06T07:25:14.394Z,2.00
2022-09-06T07:30:20.194Z,1.97
2022-09-06T07:32:50.440Z,2.28
2022-09-06T07:35:20.456Z,2.00
2022-09-06T07:37:56.475Z,2.60
2022-09-06T07:40:25.370Z,2.30
2022-09-06T07:42:53.986Z,2.20
2022-09-06T07:45:22.524Z,2.00
2022-09-06T07:47:58.935Z,2.08
2022-09-06T07:53:24.680Z,2.10
2022-09-06T07:55:59.804Z,2.00
2022-09-06T07:58:29.415Z,2.08
2022-09-06T08:01:20.213Z,2.30
2022-09-06T08:03:50.092Z,2.28
2022-09-06T08:06:18.954Z,2.33
2022-09-06T08:09:02.676Z,2.40
2022-09-06T08:11:33.369Z,2.50
2022-09-06T08:14:03.182Z,2.30
2022-09-06T08:16:32.900Z,1.80
2022-09-06T08:19:04.980Z,1.88
2022-09-06T08:21:35.092Z,1.98
2022-09-06T08:24:05.687Z,2.15
2022-09-06T08:26:36.076Z,1.88
2022-09-06T08:29:06.894Z,1.50
2022-09-06T08:31:37.515Z,1.70
2022-09-06T08:34:07.512Z,2.10
2022-09-06T08:36:36.583Z,1.60
2022-09-06T08:39:06.920Z,1.80
2022-09-06T08:41:49.388Z,1.55
2022-09-06T08:47:11.882Z,1.80
2022-09-06T08:49:43.487Z,1.65
2022-09-06T08:52:31.310Z,1.38
2022-09-06T08:55:14.272Z,1.48
2022-09-06T08:57:59.094Z,1.77
2022-09-06T09:00:27.789Z,2.05
2022-09-06T09:03:05.226Z,1.85
2022-09-06T09:05:37.326Z,1.90
2022-09-06T09:08:13.467Z,1.42
2022-09-06T09:10:44.003Z,1.67
2022-09-06T09:13:23.272Z,1.30
2022-09-06T09:15:51.925Z,1.70
2022-09-06T09:18:24.966Z,1.23
2022-09-06T09:20:55.045Z,1.10
2022-09-06T09:23:23.579Z,2.38
2022-09-06T09:25:53.767Z,1.65
2022-09-06T09:28:25.051Z,1.30
2022-09-06T09:30:55.517Z,1.35
2022-09-06T09:33:29.453Z,1.33
2022-09-06T09:36:02.106Z,1.17
2022-09-06T09:38:32.901Z,1.60
2022-09-06T09:41:04.293Z,1.33
2022-09-06T09:43:35.999Z,1.20
2022-09-06T09:46:29.808Z,1.67
2022-09-06T09:49:04.628Z,1.13
2022-09-06T09:51:38.018Z,1.30
2022-09-06T09:54:08.861Z,1.27
2022-09-06T09:56:43.424Z,1.58
2022-09-06T09:59:24.878Z,1.10
2022-09-06T10:01:56.623Z,1.40
2022-09-06T10:04:46.443Z,1.00
2022-09-06T10:07:19.326Z,1.60
2022-09-06T10:09:49.449Z,1.55
2022-09-06T10:12:20.231Z,1.38
2022-09-06T10:14:50.050Z,0.85
2022-09-06T10:17:28.828Z,1.00
2022-09-06T10:19:58.304Z,0.90
2022-09-06T10:22:32.753Z,1.15
2022-09-06T10:25:31.390Z,0.90
2022-09-06T10:28:31.567Z,1.90
2022-09-06T10:31:28.692Z,1.00
2022-09-06T10:34:07.409Z,1.10
2022-09-06T10:36:37.906Z,1.00
2022-09-06T10:39:17.411Z,2.40
2022-09-06T10:42:02.261Z,1.23
2022-09-06T10:44:47.334Z,1.00
2022-09-06T10:47:17.075Z,1.15
2022-09-06T10:49:48.733Z,2.08
2022-09-06T10:52:24.213Z,1.10
2022-09-06T10:55:02.156Z,0.93
2022-09-06T11:00:25.534Z,1.60
2022-09-06T11:05:55.003Z,0.93
2022-09-06T11:11:19.840Z,1.10
2022-09-06T11:13:48.383Z,1.08
2022-09-06T11:16:23.545Z,1.17
2022-09-06T11:18:57.904Z,1.10
2022-09-06T11:22:00.961Z,1.00
2022-09-06T11:24:43.695Z,0.80
2022-09-06T11:27:20.326Z,1.17
2022-09-06T11:29:56.286Z,1.45
2022-09-06T11:32:38.653Z,1.08
2022-09-06T11:35:11.155Z,1.17
2022-09-06T11:37:43.743Z,1.20
2022-09-06T11:43:13.728Z,1.05
2022-09-06T11:45:45.744Z,1.20
2022-09-06T11:48:51.137Z,1.40
2022-09-06T11:51:34.835Z,0.77
2022-09-06T11:54:28.507Z,0.98
2022-09-06T11:57:00.771Z,1.15
2022-09-06T11:59:45.024Z,1.60
2022-09-06T12:02:38.262Z,1.17
2022-09-06T12:05:22.491Z,1.10
2022-09-06T12:08:28.163Z,1.40
2022-09-06T12:11:03.036Z,0.93
2022-09-06T12:13:50.361Z,0.95
2022-09-06T12:16:20.869Z,1.08
2022-09-06T12:19:03.172Z,0.88
2022-09-06T12:21:52.320Z,1.20
2022-09-06T12:24:55.878Z,0.98
2022-09-06T12:27:26.888Z,1.00
2022-09-06T12:29:59.453Z,1.20
2022-09-06T12:32:37.340Z,1.10
2022-09-06T12:38:04.280Z,0.70
2022-09-06T12:40:34.988Z,1.00
2022-09-06T12:43:05.929Z,0.90
2022-09-06T12:45:34.623Z,1.00
2022-09-06T12:48:10.557Z,1.10
2022-09-06T12:50:39.440Z,1.05
2022-09-06T12:53:23.637Z,1.10
2022-09-06T12:56:05.212Z,1.10
2022-09-06T12:58:34.510Z,0.93
2022-09-06T13:01:10.941Z,0.80
2022-09-06T13:03:45.047Z,1.02
2022-09-06T13:06:23.261Z,1.65
2022-09-06T13:08:56.949Z,1.00
2022-09-06T13:11:29.350Z,0.93
2022-09-06T13:13:58.520Z,1.00
2022-09-06T13:16:29.156Z,1.60
2022-09-06T13:19:12.528Z,1.13
2022-09-06T13:21:42.526Z,0.82
2022-09-06T13:24:22.133Z,0.75
2022-09-06T13:26:50.719Z,1.95
2022-09-06T13:29:30.300Z,1.90
2022-09-06T13:32:00.819Z,1.00
2022-09-06T13:34:32.740Z,0.80
2022-09-06T13:37:03.332Z,0.90
2022-09-06T13:39:33.678Z,1.13
2022-09-06T13:42:04.428Z,0.90
2022-09-06T13:44:34.432Z,1.20
2022-09-06T13:47:03.175Z,1.10
2022-09-06T13:49:33.853Z,1.00
2022-09-06T13:52:04.606Z,1.08
2022-09-06T13:54:34.225Z,0.90
2022-09-06T13:57:02.845Z,1.10
2022-09-06T13:59:31.507Z,1.35
2022-09-06T14:02:03.597Z,0.90
2022-09-06T14:04:33.513Z,0.90
2022-09-06T14:07:02.546Z,1.20
2022-09-06T14:09:31.133Z,2.53
2022-09-06T14:11:59.774Z,1.20
2022-09-06T14:14:28.330Z,1.08
2022-09-06T14:16:57.174Z,0.95
2022-09-06T14:19:26.957Z,1.23
2022-09-06T14:21:57.415Z,1.95
2022-09-06T14:24:25.954Z,1.13
2022-09-06T14:26:54.553Z,1.35
2022-09-06T14:29:23.323Z,1.25
2022-09-06T14:31:51.932Z,1.15
2022-09-06T14:34:20.454Z,1.40
2022-09-06T14:36:48.967Z,1.35
2022-09-06T14:39:19.266Z,3.42
2022-09-06T14:41:48.188Z,2.45
2022-09-06T14:44:16.744Z,8.40
2022-09-06T14:46:47.671Z,1.25
2022-09-06T14:49:16.267Z,0.93
2022-09-06T14:51:45.976Z,1.23
2022-09-06T14:54:15.747Z,1.17
2022-09-06T14:56:46.235Z,1.40
2022-09-06T14:59:15.030Z,1.42
2022-09-06T15:01:43.718Z,1.20
2022-09-06T15:04:12.780Z,1.35
2022-09-06T15:06:46.903Z,2.25
2022-09-06T15:09:16.113Z,1.75
2022-09-06T15:11:48.726Z,1.27
2022-09-06T15:14:19.100Z,1.40
2022-09-06T15:16:53.349Z,1.50
2022-09-06T15:19:25.414Z,1.30
2022-09-06T15:21:54.042Z,1.35
2022-09-06T15:24:22.971Z,1.23
2022-09-06T15:26:53.586Z,1.50
2022-09-06T15:29:22.592Z,1.10
2022-09-06T15:31:51.902Z,2.50
2022-09-06T15:34:22.164Z,1.40
2022-09-06T15:36:51.628Z,2.78
2022-09-06T15:39:20.438Z,1.70
2022-09-06T15:41:52.654Z,1.45
2022-09-06T15:44:21.977Z,1.40
2022-09-06T15:46:52.284Z,1.30
2022-09-06T15:49:27.536Z,1.70
2022-09-06T15:51:56.936Z,1.50
2022-09-06T15:54:46.153Z,1.60
2022-09-06T15:57:17.217Z,2.08
2022-09-06T15:59:46.148Z,1.92
2022-09-06T16:02:15.001Z,2.03
2022-09-06T16:04:43.917Z,2.42
2022-09-06T16:07:12.623Z,1.38
2022-09-06T16:09:41.277Z,1.70
2022-09-06T16:12:10.246Z,1.90
2022-09-06T16:14:40.155Z,1.35
2022-09-06T16:17:08.790Z,1.70
2022-09-06T16:19:37.418Z,1.88
2022-09-06T16:22:06.050Z,1.75
2022-09-06T16:24:34.718Z,1.80
2022-09-06T16:27:03.383Z,1.30
2022-09-06T16:29:31.933Z,2.35
2022-09-06T16:32:01.904Z,1.67
2022-09-06T16:34:30.448Z,1.17
2022-09-06T16:37:00.142Z,1.60
2022-09-06T16:39:28.715Z,1.60
2022-09-06T16:41:57.298Z,1.10
2022-09-06T16:44:26.133Z,1.70
2022-09-06T16:46:56.066Z,1.73
2022-09-06T16:49:26.196Z,1.30
2022-09-06T16:51:54.725Z,2.70
2022-09-06T16:54:23.274Z,1.95
2022-09-06T16:56:51.872Z,1.95
2022-09-06T16:59:21.693Z,1.70
2022-09-06T17:01:51.516Z,2.22
2022-09-06T17:04:20.347Z,2.00
2022-09-06T17:06:50.236Z,3.05
2022-09-06T17:09:20.781Z,1.70
2022-09-06T17:11:50.578Z,1.73
2022-09-06T17:14:19.474Z,2.08
2022-09-06T17:17:05.408Z,1.65
2022-09-06T17:19:37.011Z,2.25
2022-09-06T17:22:07.211Z,4.00
2022-09-06T17:24:35.821Z,3.97
2022-09-06T17:27:04.655Z,2.08
2022-09-06T17:29:33.347Z,1.85
2022-09-06T17:32:03.837Z,1.80
2022-09-06T17:34:32.455Z,1.58
2022-09-06T17:37:01.018Z,1.88
2022-09-06T17:39:30.947Z,3.70
2022-09-06T17:41:59.921Z,4.30
2022-09-06T17:44:28.928Z,3.17
2022-09-06T17:47:11.910Z,2.40
2022-09-06T17:49:41.547Z,2.22
2022-09-06T17:52:10.118Z,2.70
2022-09-06T17:54:40.179Z,3.13
2022-09-06T17:57:08.763Z,2.10
2022-09-06T17:59:38.392Z,1.85
2022-09-06T18:02:07.586Z,3.00
2022-09-06T18:04:36.714Z,3.45
2022-09-06T18:07:05.435Z,2.85
2022-09-06T18:09:34.046Z,2.17
2022-09-06T18:12:04.823Z,1.80
2022-09-06T18:14:33.445Z,2.13
2022-09-06T18:17:02.035Z,2.03
2022-09-06T18:19:31.085Z,2.63
2022-09-06T18:21:59.609Z,2.27
2022-09-06T18:24:28.663Z,2.50
2022-09-06T18:26:57.535Z,2.70
2022-09-06T18:29:27.729Z,2.77
2022-09-06T18:31:57.306Z,3.42
2022-09-06T18:34:26.073Z,2.87
2022-09-06T18:36:54.614Z,2.90
2022-09-06T18:39:23.340Z,2.60
2022-09-06T18:42:11.069Z,2.33
2022-09-06T18:44:41.274Z,2.33
2022-09-06T18:47:12.261Z,1.90
2022-09-06T18:49:44.167Z,1.57
2022-09-06T18:52:13.796Z,1.60
2022-09-06T18:54:43.772Z,1.90
2022-09-06T18:57:12.813Z,1.90
2022-09-06T18:59:43.615Z,1.63
2022-09-06T19:02:12.907Z,1.73
2022-09-06T19:04:41.994Z,2.00
2022-09-06T19:07:10.946Z,2.10
2022-09-06T19:09:39.929Z,2.37
2022-09-06T19:12:11.881Z,2.00
2022-09-06T19:14:42.737Z,1.90
2022-09-06T19:17:11.622Z,1.83
2022-09-06T19:19:40.977Z,2.00
2022-09-06T19:22:09.796Z,2.17
2022-09-06T19:24:39.530Z,1.70
2022-09-06T19:27:08.104Z,3.00
2022-09-06T19:29:36.828Z,2.10
2022-09-06T19:32:07.345Z,1.80
2022-09-06T19:34:35.946Z,1.87
2022-09-06T19:37:04.525Z,1.83
2022-09-06T19:39:37.162Z,2.10
2022-09-06T19:42:06.534Z,2.60
2022-09-06T19:44:35.015Z,2.47
2022-09-06T19:47:04.097Z,1.53
2022-09-06T19:49:34.041Z,2.00
2022-09-06T19:52:09.436Z,1.80
2022-09-06T19:54:38.080Z,1.97
2022-09-06T19:57:07.052Z,1.67
2022-09-06T19:59:36.583Z,2.30
2022-09-06T20:02:05.271Z,2.00
2022-09-06T20:04:35.232Z,1.93
2022-09-06T20:07:03.804Z,2.73
2022-09-06T20:09:32.343Z,2.30
2022-09-06T20:12:00.924Z,1.63
2022-09-06T20:14:29.947Z,2.03
2022-09-06T20:17:16.479Z,1.77
2022-09-06T20:19:49.245Z,2.00
2022-09-06T20:22:18.074Z,1.77
2022-09-06T20:24:46.900Z,2.10
2022-09-06T20:27:17.094Z,2.37
2022-09-06T20:29:46.002Z,2.10
2022-09-06T20:32:14.872Z,2.37
2022-09-06T20:34:43.767Z,1.80
2022-09-06T20:37:14.218Z,2.07
2022-09-06T20:39:43.179Z,1.50
2022-09-06T20:42:11.900Z,2.07
2022-09-06T20:44:40.752Z,2.00
2022-09-06T20:47:09.791Z,1.97
2022-09-06T20:49:38.544Z,1.97
2022-09-06T20:52:07.391Z,2.00
2022-09-06T20:54:37.923Z,1.97
2022-09-06T20:57:07.075Z,1.80
2022-09-06T20:59:35.963Z,2.17
2022-09-06T21:02:04.775Z,2.20
2022-09-06T21:04:33.667Z,2.17
2022-09-06T21:07:03.496Z,2.10
2022-09-06T21:09:32.393Z,2.47
2022-09-06T21:12:04.570Z,2.30
2022-09-06T21:14:33.465Z,1.77
2022-09-06T21:17:02.275Z,1.87
2022-09-06T21:19:31.158Z,2.40
2022-09-06T21:22:00.038Z,2.47
2022-09-06T21:24:28.932Z,2.20
2022-09-06T21:26:57.778Z,2.30
2022-09-06T21:29:28.246Z,2.47
2022-09-06T21:31:57.145Z,2.47
2022-09-06T21:34:26.312Z,2.20
2022-09-06T21:36:55.125Z,2.07
2022-09-06T21:39:23.791Z,2.40
2022-09-06T21:41:52.657Z,2.30
2022-09-06T21:44:21.456Z,2.60
2022-09-06T21:46:51.930Z,2.37
2022-09-06T21:49:20.842Z,2.30
2022-09-06T21:51:49.638Z,2.13
2022-09-06T21:54:18.313Z,2.77
2022-09-06T21:56:47.171Z,2.50
2022-09-06T21:59:15.984Z,2.20
2022-09-06T22:01:45.333Z,2.73
2022-09-06T22:04:15.836Z,2.30
2022-09-06T22:06:44.464Z,2.50
2022-09-06T22:09:13.930Z,2.70
2022-09-06T22:11:44.607Z,2.73
2022-09-06T22:14:15.054Z,2.47
2022-09-06T22:16:43.742Z,2.63
2022-09-06T22:19:13.429Z,2.43
2022-09-06T22:21:43.872Z,2.40
2022-09-06T22:24:14.377Z,2.60
2022-09-06T22:26:43.486Z,2.43
2022-09-06T22:29:13.530Z,2.37
2022-09-06T22:31:43.259Z,2.57
2022-09-06T22:34:12.439Z,2.60
2022-09-06T22:36:43.179Z,2.53
2022-09-06T22:39:11.969Z,2.23
2022-09-06T22:41:40.765Z,2.40
2022-09-06T22:44:09.364Z,2.43
2022-09-06T22:46:38.409Z,2.93
2022-09-06T22:49:07.310Z,2.37
2022-09-06T22:51:36.136Z,2.90
2022-09-06T22:54:06.684Z,2.67
2022-09-06T22:56:35.799Z,2.43
2022-09-06T22:59:05.381Z,2.43
2022-09-06T23:01:38.868Z,2.53
2022-09-06T23:04:08.459Z,2.83
2022-09-06T23:06:38.219Z,2.53
2022-09-06T23:09:08.935Z,2.57
2022-09-06T23:11:37.722Z,3.10
2022-09-06T23:14:06.845Z,2.60
2022-09-06T23:16:35.723Z,2.33
2022-09-06T23:19:04.346Z,2.33
2022-09-06T23:21:33.755Z,2.70
2022-09-06T23:24:02.818Z,2.57
2022-09-06T23:26:34.018Z,2.57
2022-09-06T23:29:02.845Z,2.30
2022-09-06T23:31:32.797Z,2.17
2022-09-06T23:34:02.755Z,2.00
2022-09-06T23:36:32.577Z,1.90
2022-09-06T23:39:02.617Z,2.30
2022-09-06T23:41:32.845Z,2.00
2022-09-06T23:44:03.323Z,2.37
2022-09-06T23:46:32.406Z,2.00
2022-09-06T23:49:01.203Z,2.30
2022-09-06T23:51:29.933Z,2.00
2022-09-06T23:53:59.129Z,2.03
2022-09-06T23:56:27.816Z,2.23
2022-09-06T23:58:57.981Z,2.33
